TimeEST,TemperatureF,Dew PointF,Humidity,Sea Level PressureIn,VisibilityMPH,Wind Direction,Wind SpeedMPH,Gust SpeedMPH,PrecipitationIn,Events,Conditions,WindDirDegrees,DateUTC
12:17 AM,57.2,55.4,94,29.59,4.0,WNW,4.6,-,N/A,,Mostly Cloudy,290,2012-12-11 05:17:00
12:24 AM,57.2,55.4,94,29.59,4.0,West,4.6,-,N/A,,Mostly Cloudy,280,2012-12-11 05:24:00
12:39 AM,57.2,55.4,94,29.59,4.0,NNW,9.2,-,N/A,,Overcast,330,2012-12-11 05:39:00
12:53 AM,55.0,52.0,89,29.59,5.0,North,13.8,20.7,0.00,Rain,Light Rain,360,2012-12-11 05:53:00
1:53 AM,46.0,39.9,79,29.65,10.0,NNE,11.5,21.9,0.00,,Overcast,20,2012-12-11 06:53:00
2:53 AM,45.0,39.9,82,29.70,10.0,NNE,9.2,-,0.00,,Overcast,20,2012-12-11 07:53:00
3:53 AM,45.0,39.0,80,29.70,10.0,North,4.6,-,N/A,,Overcast,10,2012-12-11 08:53:00
4:53 AM,45.0,37.9,76,29.73,10.0,North,8.1,-,N/A,,Overcast,10,2012-12-11 09:53:00
5:53 AM,43.0,39.9,89,29.81,8.0,NW,4.6,-,0.05,Rain,Light Rain,310,2012-12-11 10:53:00
6:53 AM,43.0,39.9,89,29.83,10.0,NNW,3.5,-,0.00,Rain,Light Rain,330,2012-12-11 11:53:00
7:53 AM,43.0,39.0,86,29.85,10.0,NNW,6.9,-,0.00,,Overcast,340,2012-12-11 12:53:00
8:53 AM,43.0,37.0,80,29.88,10.0,North,8.1,-,N/A,,Scattered Clouds,350,2012-12-11 13:53:00
9:53 AM,45.0,36.0,71,29.90,10.0,North,6.9,-,N/A,,Mostly Cloudy,350,2012-12-11 14:53:00
10:53 AM,46.0,36.0,68,29.93,10.0,NNW,8.1,-,N/A,,Overcast,340,2012-12-11 15:53:00
11:53 AM,46.9,35.1,63,29.92,10.0,Variable,6.9,-,N/A,,Overcast,0,2012-12-11 16:53:00
12:53 PM,46.9,30.9,54,29.94,10.0,NW,12.7,-,N/A,,Overcast,320,2012-12-11 17:53:00
1:53 PM,46.9,32.0,56,29.94,10.0,NNW,6.9,-,N/A,,Mostly Cloudy,330,2012-12-11 18:53:00
2:53 PM,48.9,33.1,54,29.97,10.0,NNW,6.9,-,N/A,,Overcast,330,2012-12-11 19:53:00
3:53 PM,46.9,30.9,54,29.99,10.0,Variable,3.5,-,N/A,,Mostly Cloudy,0,2012-12-11 20:53:00
4:53 PM,46.0,30.0,54,30.03,10.0,NW,5.8,-,N/A,,Overcast,310,2012-12-11 21:53:00
5:53 PM,45.0,28.0,52,30.06,10.0,NNW,5.8,-,N/A,,Partly Cloudy,330,2012-12-11 22:53:00
6:53 PM,43.0,28.9,58,30.10,10.0,NNW,5.8,-,N/A,,Scattered Clouds,330,2012-12-11 23:53:00
7:53 PM,42.1,28.9,60,30.12,10.0,NNW,4.6,-,N/A,,Mostly Cloudy,330,2012-12-12 00:53:00
8:53 PM,41.0,27.0,57,30.14,10.0,NNW,4.6,-,N/A,,Partly Cloudy,330,2012-12-12 01:53:00
9:53 PM,39.0,26.1,60,30.17,10.0,NNW,4.6,-,N/A,,Clear,340,2012-12-12 02:53:00
10:53 PM,37.9,26.1,62,30.17,10.0,NNW,3.5,-,N/A,,Clear,340,2012-12-12 03:53:00
11:53 PM,37.0,27.0,67,30.19,10.0,Calm,Calm,-,N/A,,Clear,0,2012-12-12 04:53:00